Time;durP1;ratioP1;P1;durP2;ratioP2;P2;SDS_P1;SDS_P2;PMS_P1;PMS_P2;Temp;Humidity;BMP_temperature;BMP_pressure;BME280_temperature;BME280_humidity;BME280_pressure;Samples;Min_cycle;Max_cycle;Signal;HPM_P1;HPM_P2
2021/07/22 00:02:10;;;;;;;3.38;2.88;;;22.90;71.40;;;;;;5053324;28;20056;-46
2021/07/22 00:04:36;;;;;;;3.10;2.80;;;22.90;71.40;;;;;;5052927;28;20044;-49
2021/07/22 00:07:02;;;;;;;3.40;2.85;;;22.90;71.40;;;;;;5052797;28;20041;-46
2021/07/22 00:09:28;;;;;;;3.20;2.70;;;22.90;71.40;;;;;;5052356;28;20099;-47
2021/07/22 00:11:54;;;;;;;3.13;2.60;;;22.90;71.40;;;;;;5052847;28;20079;-44
2021/07/22 00:14:19;;;;;;;4.93;2.75;;;22.90;71.40;;;;;;5051700;28;20045;-45
2021/07/22 00:16:45;;;;;;;3.53;2.80;;;22.90;72.10;;;;;;5053278;28;20094;-53
2021/07/22 00:19:12;;;;;;;3.00;2.70;;;22.90;71.40;;;;;;5052073;28;20048;-51
2021/07/22 00:21:38;;;;;;;3.10;2.80;;;22.90;71.40;;;;;;5052668;28;20063;-50
2021/07/22 00:24:04;;;;;;;3.72;3.22;;;22.90;71.40;;;;;;5051696;28;20047;-49
2021/07/22 00:26:30;;;;;;;3.53;3.03;;;22.90;71.40;;;;;;5052544;28;20041;-50
2021/07/22 00:28:57;;;;;;;3.10;2.80;;;22.90;71.40;;;;;;5052293;28;20048;-45
2021/07/22 00:31:24;;;;;;;3.30;3.00;;;22.90;71.40;;;;;;5052380;28;20509;-47
2021/07/22 00:33:50;;;;;;;4.25;2.70;;;22.90;71.40;;;;;;5052597;28;20045;-51
2021/07/22 00:36:16;;;;;;;3.20;2.80;;;22.90;71.40;;;;;;5052394;28;20053;-46
2021/07/22 00:38:43;;;;;;;2.97;2.67;;;22.90;71.40;;;;;;5050945;28;20136;-45
2021/07/22 00:41:12;;;;;;;3.55;3.20;;;22.90;71.40;;;;;;5048008;28;20107;-47
2021/07/22 00:43:39;;;;;;;3.28;2.80;;;22.90;71.40;;;;;;5052102;28;20070;-46
2021/07/22 00:46:05;;;;;;;3.78;3.00;;;22.90;71.40;;;;;;5052200;28;20041;-50
2021/07/22 00:48:31;;;;;;;2.90;2.65;;;22.90;71.40;;;;;;5051710;28;20048;-46
2021/07/22 00:50:57;;;;;;;3.90;3.00;;;22.90;71.40;;;;;;5051959;28;20195;-47
2021/07/22 00:53:22;;;;;;;2.92;2.50;;;22.90;71.50;;;;;;5052176;28;20056;-48
2021/07/22 00:55:48;;;;;;;3.33;2.80;;;22.90;71.50;;;;;;5051742;28;20055;-47
2021/07/22 00:58:14;;;;;;;4.38;3.25;;;22.90;71.50;;;;;;5052083;28;20160;-47
2021/07/22 01:00:39;;;;;;;2.88;2.58;;;22.90;71.50;;;;;;5051919;28;20053;-50
2021/07/22 01:03:05;;;;;;;4.15;3.20;;;22.90;71.50;;;;;;5052327;28;20052;-48
2021/07/22 01:05:31;;;;;;;4.68;3.22;;;22.90;71.50;;;;;;5051687;28;20049;-51
2021/07/22 01:07:57;;;;;;;3.65;2.90;;;22.90;71.50;;;;;;5051886;28;20072;-47
2021/07/22 01:10:23;;;;;;;3.00;2.67;;;22.90;71.60;;;;;;5051490;28;20469;-51
2021/07/22 01:12:49;;;;;;;3.05;2.75;;;22.90;71.50;;;;;;5052144;28;20068;-46
2021/07/22 01:15:14;;;;;;;3.20;2.85;;;22.90;71.50;;;;;;5051700;28;20055;-52
2021/07/22 01:17:50;;;;;;;3.42;3.00;;;22.90;71.50;;;;;;5052004;28;20068;-51
2021/07/22 01:20:20;;;;;;;3.17;2.80;;;22.90;71.50;;;;;;5051548;28;20069;-51
2021/07/22 01:22:46;;;;;;;3.60;3.05;;;22.80;71.50;;;;;;5052210;28;20106;-47
2021/07/22 01:25:13;;;;;;;3.17;2.88;;;22.90;71.60;;;;;;5051018;28;20049;-51
2021/07/22 01:27:39;;;;;;;3.80;2.78;;;22.90;71.60;;;;;;5051720;28;20041;-49
2021/07/22 01:30:06;;;;;;;3.22;2.83;;;22.80;71.50;;;;;;5050955;28;20040;-47
2021/07/22 01:32:32;;;;;;;3.50;3.20;;;22.90;71.60;;;;;;5052024;28;20292;-46
2021/07/22 01:34:58;;;;;;;2.95;2.65;;;22.90;71.60;;;;;;5052089;28;20466;-45
2021/07/22 01:37:24;;;;;;;3.20;2.90;;;22.90;71.60;;;;;;5051627;28;20041;-46
2021/07/22 01:39:50;;;;;;;3.65;3.30;;;22.90;71.60;;;;;;5051268;28;20048;-48
2021/07/22 01:42:15;;;;;;;3.47;2.83;;;22.90;71.60;;;;;;5050786;28;20041;-44
2021/07/22 01:44:41;;;;;;;3.42;3.00;;;22.80;71.60;;;;;;5051772;28;20109;-46
2021/07/22 01:47:07;;;;;;;3.10;2.80;;;22.80;71.60;;;;;;5051540;28;20068;-46
2021/07/22 01:49:33;;;;;;;3.50;3.20;;;22.80;71.60;;;;;;5052937;28;20041;-47
2021/07/22 01:52:02;;;;;;;3.50;3.20;;;22.90;71.60;;;;;;5055972;28;20045;-49
2021/07/22 01:54:28;;;;;;;3.35;2.90;;;22.90;71.70;;;;;;5055805;28;20045;-44
2021/07/22 01:57:02;;;;;;;3.45;3.00;;;22.80;71.60;;;;;;5055245;28;20053;-48
2021/07/22 01:59:35;;;;;;;4.35;3.08;;;22.80;71.70;;;;;;5054667;28;20119;-46
2021/07/22 02:02:05;;;;;;;3.55;2.90;;;22.90;71.60;;;;;;5035639;28;20137;-42
2021/07/22 02:04:31;;;;;;;3.38;2.80;;;22.80;71.60;;;;;;5049017;28;20109;-42
2021/07/22 02:06:57;;;;;;;4.78;3.30;;;22.80;71.60;;;;;;5055522;28;20045;-44
2021/07/22 02:09:24;;;;;;;3.38;2.95;;;22.80;71.60;;;;;;5055302;28;20131;-46
2021/07/22 02:11:51;;;;;;;4.00;2.92;;;22.80;71.60;;;;;;5054623;28;20049;-45
2021/07/22 02:14:17;;;;;;;2.92;2.63;;;22.80;71.60;;;;;;5054548;28;20073;-46
2021/07/22 02:16:42;;;;;;;3.40;2.88;;;22.80;71.60;;;;;;5055424;28;20075;-45
2021/07/22 02:19:08;;;;;;;4.35;3.13;;;22.80;71.60;;;;;;5054687;28;20565;-45
2021/07/22 02:21:36;;;;;;;3.25;2.80;;;22.80;71.60;;;;;;5054216;28;20040;-49
2021/07/22 02:24:03;;;;;;;3.17;2.70;;;22.80;71.70;;;;;;5055320;28;20182;-45
2021/07/22 02:26:30;;;;;;;3.90;2.85;;;22.80;71.60;;;;;;5054918;28;20045;-45
2021/07/22 02:28:56;;;;;;;2.92;2.63;;;22.80;71.70;;;;;;5054571;28;20135;-43
2021/07/22 02:31:22;;;;;;;3.97;3.55;;;22.80;71.70;;;;;;5054396;28;20100;-43
2021/07/22 02:33:47;;;;;;;3.50;3.03;;;22.80;71.70;;;;;;5054981;28;20049;-44
2021/07/22 02:36:13;;;;;;;3.33;2.80;;;22.80;71.70;;;;;;5054823;28;20041;-46
2021/07/22 02:38:39;;;;;;;3.60;3.08;;;22.80;71.70;;;;;;5054614;28;20048;-47
2021/07/22 02:41:05;;;;;;;3.20;2.70;;;22.80;71.70;;;;;;5054578;28;20033;-46
2021/07/22 02:43:32;;;;;;;3.15;2.85;;;22.80;71.70;;;;;;5053751;28;20045;-46
2021/07/22 02:45:58;;;;;;;3.70;3.28;;;22.80;71.70;;;;;;5054669;28;20141;-46
2021/07/22 02:48:23;;;;;;;3.17;2.83;;;22.80;71.70;;;;;;5054399;28;20492;-45
2021/07/22 02:50:49;;;;;;;3.58;2.63;;;22.80;71.70;;;;;;5051027;28;20171;-48
2021/07/22 02:53:15;;;;;;;3.35;2.90;;;22.80;71.70;;;;;;5043025;28;20090;-44
2021/07/22 02:55:40;;;;;;;3.33;3.00;;;22.80;71.70;;;;;;5054711;28;20047;-47
2021/07/22 02:58:07;;;;;;;3.10;2.70;;;22.80;72.30;;;;;;5054267;28;20095;-45
2021/07/22 03:00:33;;;;;;;3.20;2.90;;;22.80;71.70;;;;;;5052094;28;20055;-50
2021/07/22 03:03:02;;;;;;;3.00;2.70;;;22.60;71.60;;;;;;5054107;28;20072;-48
2021/07/22 03:05:29;;;;;;;3.10;2.80;;;22.80;71.70;;;;;;5054585;28;20049;-44
2021/07/22 03:07:56;;;;;;;3.17;2.88;;;22.80;71.70;;;;;;5054488;28;20045;-47
2021/07/22 03:10:23;;;;;;;3.17;2.88;;;22.80;71.70;;;;;;5054240;28;20142;-48
2021/07/22 03:12:48;;;;;;;3.28;2.75;;;22.80;71.70;;;;;;5053849;28;20045;-50
2021/07/22 03:15:16;;;;;;;2.72;2.50;;;22.80;71.70;;;;;;5053754;28;20048;-48
2021/07/22 03:17:42;;;;;;;3.25;2.95;;;22.80;71.80;;;;;;5054243;28;20110;-46
2021/07/22 03:20:08;;;;;;;3.10;2.72;;;22.80;71.70;;;;;;5053751;28;20448;-49
2021/07/22 03:22:34;;;;;;;3.13;2.60;;;22.80;71.80;;;;;;5053570;28;20135;-47
2021/07/22 03:25:00;;;;;;;3.33;2.70;;;22.80;71.70;;;;;;5053437;28;20370;-50
2021/07/22 03:27:25;;;;;;;3.38;2.80;;;22.80;71.70;;;;;;5052231;28;20107;-50
2021/07/22 03:29:51;;;;;;;3.15;2.72;;;22.80;71.70;;;;;;5053473;28;20049;-48
2021/07/22 03:32:17;;;;;;;3.30;2.70;;;22.80;71.80;;;;;;5051090;28;20478;-49
2021/07/22 03:34:42;;;;;;;3.38;2.95;;;22.70;71.70;;;;;;5052905;28;20072;-43
2021/07/22 03:37:08;;;;;;;3.05;2.75;;;22.70;71.70;;;;;;5052979;28;20052;-49
2021/07/22 03:39:34;;;;;;;2.80;2.50;;;22.80;71.80;;;;;;5052832;28;20460;-46
2021/07/22 03:41:59;;;;;;;3.65;2.80;;;22.80;71.80;;;;;;5052447;28;20393;-52
2021/07/22 03:44:26;;;;;;;3.28;2.97;;;22.80;71.80;;;;;;5053638;28;20052;-48
2021/07/22 03:46:51;;;;;;;3.20;2.67;;;22.70;71.70;;;;;;5052908;28;20040;-49
2021/07/22 03:49:17;;;;;;;3.00;2.65;;;22.80;71.80;;;;;;5053056;28;20059;-52
2021/07/22 03:51:42;;;;;;;3.03;2.72;;;22.80;71.80;;;;;;5052487;28;20049;-47
2021/07/22 03:54:08;;;;;;;3.67;2.83;;;22.70;71.70;;;;;;5052976;28;20087;-44
2021/07/22 03:56:34;;;;;;;3.30;2.88;;;22.80;71.80;;;;;;5053368;28;20043;-47
2021/07/22 03:59:00;;;;;;;2.80;2.58;;;22.70;71.70;;;;;;5053024;28;20416;-42
2021/07/22 04:01:26;;;;;;;2.53;2.33;;;22.80;71.80;;;;;;5052628;28;20045;-50
2021/07/22 04:03:54;;;;;;;3.15;2.42;;;22.70;71.70;;;;;;5052685;28;20048;-53
2021/07/22 04:06:20;;;;;;;3.83;2.97;;;22.70;72.40;;;;;;5053226;28;20049;-47
2021/07/22 04:08:46;;;;;;;3.05;2.70;;;22.80;71.80;;;;;;5052469;28;20116;-46
2021/07/22 04:11:12;;;;;;;3.15;2.83;;;22.70;71.80;;;;;;5052925;28;20051;-44
2021/07/22 04:13:38;;;;;;;3.58;3.05;;;22.70;71.70;;;;;;5052484;28;20045;-45
2021/07/22 04:16:03;;;;;;;2.97;2.67;;;22.70;71.70;;;;;;5052988;28;20106;-46
2021/07/22 04:18:30;;;;;;;3.00;2.70;;;22.70;71.70;;;;;;5051902;28;20074;-44
2021/07/22 04:20:56;;;;;;;3.25;2.63;;;22.80;71.80;;;;;;5052881;28;20064;-46
2021/07/22 04:23:22;;;;;;;2.92;2.63;;;22.70;71.70;;;;;;5052635;28;20481;-46
2021/07/22 04:25:48;;;;;;;3.42;2.60;;;22.70;71.80;;;;;;5052555;28;20077;-46
2021/07/22 04:28:14;;;;;;;2.60;2.40;;;22.70;71.70;;;;;;5052697;28;20043;-46
2021/07/22 04:30:40;;;;;;;3.75;2.90;;;22.70;71.70;;;;;;5052500;28;20052;-47
2021/07/22 04:33:06;;;;;;;2.65;2.40;;;22.70;71.70;;;;;;5052258;28;20485;-44
2021/07/22 04:35:32;;;;;;;3.03;2.60;;;22.70;71.70;;;;;;5052680;28;20071;-46
2021/07/22 04:37:59;;;;;;;3.17;2.67;;;22.70;71.70;;;;;;5052589;28;20537;-42
2021/07/22 04:40:24;;;;;;;2.85;2.55;;;22.70;71.80;;;;;;5051784;28;20051;-49
2021/07/22 04:42:50;;;;;;;2.95;2.65;;;22.70;71.70;;;;;;5052753;28;20045;-46
2021/07/22 04:45:16;;;;;;;2.63;2.42;;;22.70;71.70;;;;;;5050816;28;20060;-46
2021/07/22 04:47:42;;;;;;;3.47;3.03;;;22.70;72.40;;;;;;5052840;28;20045;-43
2021/07/22 04:50:08;;;;;;;2.88;2.47;;;22.70;71.80;;;;;;5049599;28;20053;-44
2021/07/22 04:52:34;;;;;;;2.65;2.30;;;22.70;71.70;;;;;;5052046;28;20440;-42
2021/07/22 04:54:59;;;;;;;2.67;2.40;;;22.70;71.70;;;;;;5052002;28;20048;-46
2021/07/22 04:57:25;;;;;;;3.08;2.78;;;22.80;71.80;;;;;;5052346;28;20049;-46
2021/07/22 04:59:51;;;;;;;3.50;2.60;;;22.70;71.70;;;;;;5066665;28;20481;-50
2021/07/22 05:02:16;;;;;;;2.72;2.42;;;22.70;71.70;;;;;;5052032;28;20171;-46
2021/07/22 05:04:42;;;;;;;2.55;2.30;;;22.70;71.70;;;;;;5051725;28;20497;-46
2021/07/22 05:07:08;;;;;;;3.55;2.58;;;22.70;71.70;;;;;;5051943;28;20094;-42
2021/07/22 05:09:34;;;;;;;3.15;2.70;;;22.70;71.80;;;;;;5050490;28;20634;-47
2021/07/22 05:12:00;;;;;;;2.60;2.22;;;22.70;72.40;;;;;;5049219;28;20048;-42
2021/07/22 05:14:26;;;;;;;3.50;2.42;;;22.70;71.70;;;;;;5052066;28;20512;-46
2021/07/22 05:16:52;;;;;;;2.72;2.50;;;22.70;71.70;;;;;;5051973;28;20045;-47
2021/07/22 05:19:17;;;;;;;2.63;2.42;;;22.70;71.70;;;;;;5051683;28;20564;-47
2021/07/22 05:21:43;;;;;;;2.83;2.53;;;22.70;71.70;;;;;;5051220;28;20105;-46
2021/07/22 05:24:09;;;;;;;3.20;2.28;;;22.60;71.70;;;;;;5053470;28;20040;-47
2021/07/22 05:26:37;;;;;;;2.75;2.40;;;22.70;71.70;;;;;;5056180;28;20444;-46
2021/07/22 05:29:03;;;;;;;2.67;2.47;;;22.60;71.60;;;;;;5055935;28;20044;-45
2021/07/22 05:31:29;;;;;;;2.47;2.28;;;22.70;71.80;;;;;;5055429;28;20539;-43
2021/07/22 05:33:55;;;;;;;2.55;2.20;;;22.70;71.70;;;;;;5056009;28;20036;-45
2021/07/22 05:36:20;;;;;;;2.60;2.40;;;22.70;71.70;;;;;;5055561;28;20098;-42
2021/07/22 05:38:46;;;;;;;2.72;2.38;;;22.70;71.70;;;;;;5055914;28;20049;-44
2021/07/22 05:41:12;;;;;;;2.90;2.55;;;22.70;71.80;;;;;;5055547;28;20393;-42
2021/07/22 05:43:38;;;;;;;3.80;2.65;;;22.70;71.70;;;;;;5055628;28;20045;-45
2021/07/22 05:46:04;;;;;;;2.88;2.50;;;22.60;71.70;;;;;;5056030;28;20060;-42
2021/07/22 05:48:29;;;;;;;3.20;2.63;;;22.60;71.70;;;;;;5055265;28;20045;-40
2021/07/22 05:51:00;;;;;;;2.80;2.35;;;22.70;71.80;;;;;;5055042;28;20138;-45
2021/07/22 05:53:26;;;;;;;2.55;2.35;;;22.70;71.70;;;;;;5054922;28;20045;-44
2021/07/22 05:55:51;;;;;;;2.70;2.50;;;22.70;71.80;;;;;;5055210;28;20056;-45
2021/07/22 05:58:17;;;;;;;2.75;2.40;;;22.70;71.80;;;;;;5055496;28;20195;-45
2021/07/22 06:00:42;;;;;;;2.60;2.40;;;22.60;71.70;;;;;;5055128;28;20110;-46
2021/07/22 06:03:08;;;;;;;3.05;2.60;;;22.70;71.70;;;;;;5054936;28;20041;-43
2021/07/22 06:05:34;;;;;;;2.78;2.33;;;22.70;72.40;;;;;;5055618;28;20103;-44
2021/07/22 06:08:04;;;;;;;2.53;2.33;;;22.70;71.80;;;;;;5054848;28;20483;-46
2021/07/22 06:10:30;;;;;;;2.80;2.30;;;22.70;71.80;;;;;;5055016;28;20051;-44
2021/07/22 06:12:57;;;;;;;2.50;2.08;;;22.70;71.70;;;;;;5055174;28;20060;-42
2021/07/22 06:15:23;;;;;;;3.10;2.55;;;22.60;71.70;;;;;;5050515;28;20481;-48
2021/07/22 06:17:49;;;;;;;2.80;2.50;;;22.70;71.80;;;;;;5055147;28;20064;-41
2021/07/22 06:20:15;;;;;;;2.58;2.28;;;22.70;71.90;;;;;;5054765;28;20445;-46
2021/07/22 06:22:44;;;;;;;2.90;2.60;;;22.60;71.70;;;;;;5054937;28;20095;-40
2021/07/22 06:25:11;;;;;;;2.70;2.13;;;22.70;71.70;;;;;;5045879;28;20052;-42
2021/07/22 06:27:37;;;;;;;2.30;2.00;;;22.70;71.70;;;;;;5055173;28;20045;-44
2021/07/22 06:30:03;;;;;;;2.83;2.42;;;22.60;71.70;;;;;;5054677;28;20455;-42
2021/07/22 06:32:29;;;;;;;2.83;2.45;;;22.60;71.70;;;;;;5054490;28;20053;-43
2021/07/22 06:34:55;;;;;;;3.20;2.40;;;22.70;71.80;;;;;;5054458;28;20099;-42
2021/07/22 06:37:20;;;;;;;2.40;2.00;;;22.70;71.70;;;;;;5054874;28;20401;-45
2021/07/22 06:39:46;;;;;;;2.85;2.20;;;22.60;71.70;;;;;;5054497;28;20041;-43
2021/07/22 06:42:12;;;;;;;2.53;2.10;;;22.60;71.70;;;;;;5053968;28;20045;-49
2021/07/22 06:44:37;;;;;;;2.22;2.03;;;22.60;71.70;;;;;;5053802;28;20472;-39
2021/07/22 06:47:03;;;;;;;2.85;2.08;;;22.60;71.70;;;;;;5054653;28;20045;-40
2021/07/22 06:49:29;;;;;;;3.30;2.10;;;22.70;71.70;;;;;;5054616;28;20057;-41
2021/07/22 06:51:54;;;;;;;2.28;2.08;;;22.60;71.70;;;;;;5053999;28;20049;-43
2021/07/22 06:54:21;;;;;;;2.75;2.55;;;22.60;71.70;;;;;;5053541;28;20069;-41
2021/07/22 06:56:47;;;;;;;2.40;2.20;;;22.60;71.60;;;;;;5054063;28;20041;-43
2021/07/22 06:59:13;;;;;;;3.13;2.42;;;22.70;71.70;;;;;;5054202;28;20051;-43
2021/07/22 07:01:39;;;;;;;2.92;2.38;;;22.70;71.70;;;;;;5053384;28;20405;-41
2021/07/22 07:04:06;;;;;;;2.30;2.00;;;22.70;71.70;;;;;;5052686;28;20048;-42
2021/07/22 07:06:35;;;;;;;2.40;2.17;;;22.70;71.70;;;;;;5053535;28;20056;-42
2021/07/22 07:09:04;;;;;;;2.38;2.17;;;22.60;71.60;;;;;;5053376;28;20128;-41
2021/07/22 07:11:30;;;;;;;2.42;2.17;;;22.70;71.70;;;;;;5052306;28;20435;-43
2021/07/22 07:13:56;;;;;;;2.83;2.40;;;22.70;71.70;;;;;;5053527;28;20048;-39
2021/07/22 07:16:22;;;;;;;2.50;2.20;;;22.70;71.70;;;;;;5053686;28;20053;-44
2021/07/22 07:18:48;;;;;;;2.30;2.00;;;22.60;71.60;;;;;;5053558;28;20044;-42
2021/07/22 07:21:14;;;;;;;3.30;2.40;;;22.60;71.60;;;;;;5052690;28;20033;-40
2021/07/22 07:23:39;;;;;;;2.15;1.95;;;22.70;71.60;;;;;;5053377;28;20436;-40
2021/07/22 07:26:11;;;;;;;2.28;1.95;;;22.70;71.60;;;;;;5052879;28;20045;-42
2021/07/22 07:28:37;;;;;;;2.30;2.10;;;22.70;71.60;;;;;;5053807;28;20068;-49
2021/07/22 07:31:03;;;;;;;3.17;2.13;;;22.70;71.60;;;;;;5053553;28;20037;-48
2021/07/22 07:33:29;;;;;;;2.90;2.60;;;22.70;71.60;;;;;;5053250;28;20041;-43
2021/07/22 07:35:56;;;;;;;2.38;2.10;;;22.70;71.60;;;;;;5051904;28;20233;-41
2021/07/22 07:38:22;;;;;;;2.65;2.22;;;22.70;71.60;;;;;;5053388;28;20409;-39
2021/07/22 07:40:48;;;;;;;1.95;1.83;;;22.70;71.60;;;;;;5053113;28;20048;-40
2021/07/22 07:43:18;;;;;;;2.10;1.90;;;22.70;71.60;;;;;;5052768;28;20047;-41
2021/07/22 07:45:44;;;;;;;2.78;2.50;;;22.70;71.60;;;;;;5052704;28;20099;-40
2021/07/22 07:48:10;;;;;;;2.30;2.10;;;22.70;71.60;;;;;;5051846;28;20076;-43
2021/07/22 07:50:35;;;;;;;2.60;2.22;;;22.70;71.60;;;;;;5038899;28;20119;-43
2021/07/22 07:53:15;;;;;;;2.30;2.10;;;22.70;71.60;;;;;;5033005;28;20071;-39
2021/07/22 07:55:42;;;;;;;2.75;2.45;;;22.70;71.60;;;;;;5046228;28;20299;-49
2021/07/22 07:58:08;;;;;;;2.40;2.10;;;22.70;71.60;;;;;;5050618;28;20489;-42
2021/07/22 08:00:35;;;;;;;2.40;2.10;;;22.70;71.60;;;;;;5052894;28;20048;-48
2021/07/22 08:03:01;;;;;;;2.58;2.20;;;22.70;71.50;;;;;;5052596;28;20119;-44
2021/07/22 08:05:27;;;;;;;2.40;2.20;;;22.70;71.50;;;;;;5052369;28;20139;-44
2021/07/22 08:07:53;;;;;;;2.45;2.10;;;22.70;71.50;;;;;;5052478;28;20049;-45
2021/07/22 08:10:19;;;;;;;2.15;1.95;;;22.70;71.50;;;;;;5052846;28;20051;-45
2021/07/22 08:12:45;;;;;;;2.25;2.00;;;22.70;71.50;;;;;;5052195;28;20045;-46
2021/07/22 08:15:12;;;;;;;2.65;2.25;;;22.70;71.50;;;;;;5052136;28;20041;-46
2021/07/22 08:17:38;;;;;;;2.45;2.10;;;22.70;71.40;;;;;;5052425;28;20048;-43
2021/07/22 08:20:08;;;;;;;2.28;2.08;;;22.70;71.40;;;;;;5052077;28;20606;-41
2021/07/22 08:22:35;;;;;;;2.55;2.30;;;22.70;71.40;;;;;;5052468;28;20049;-48
2021/07/22 08:25:01;;;;;;;2.50;2.30;;;22.80;71.40;;;;;;5051803;28;20052;-46
2021/07/22 08:27:32;;;;;;;2.33;2.10;;;22.70;71.40;;;;;;5052584;28;20099;-43
2021/07/22 08:29:58;;;;;;;3.05;2.30;;;22.70;71.30;;;;;;5051832;28;20037;-43
2021/07/22 08:32:24;;;;;;;2.53;2.10;;;22.80;71.40;;;;;;5052256;28;20051;-42
2021/07/22 08:34:51;;;;;;;2.55;2.20;;;22.70;71.30;;;;;;5052018;28;20493;-46
2021/07/22 08:37:17;;;;;;;2.55;2.17;;;22.80;71.40;;;;;;5051234;28;20052;-44
2021/07/22 08:39:45;;;;;;;2.35;2.15;;;22.80;71.40;;;;;;5053004;28;20044;-48
2021/07/22 08:42:12;;;;;;;2.40;2.20;;;22.80;71.30;;;;;;5052897;28;20036;-48
2021/07/22 08:44:42;;;;;;;2.20;2.00;;;22.80;71.30;;;;;;5052099;28;20492;-49
2021/07/22 08:47:10;;;;;;;2.78;2.30;;;22.80;71.20;;;;;;5052046;28;20056;-48
2021/07/22 08:49:37;;;;;;;2.50;2.30;;;22.80;71.20;;;;;;5051585;28;20041;-44
2021/07/22 08:52:11;;;;;;;2.33;2.13;;;22.80;71.20;;;;;;5051034;28;20053;-46
2021/07/22 08:54:38;;;;;;;2.45;2.22;;;22.80;71.20;;;;;;5051609;28;20049;-43
2021/07/22 08:57:10;;;;;;;2.40;1.98;;;22.80;71.20;;;;;;5050896;28;20048;-49
2021/07/22 08:59:36;;;;;;;2.28;2.05;;;22.80;71.10;;;;;;5051030;28;20501;-45
2021/07/22 09:02:04;;;;;;;1.80;1.70;;;22.80;71.20;;;;;;5051946;28;20056;-45
2021/07/22 09:04:30;;;;;;;2.05;1.85;;;22.80;71.10;;;;;;5051026;28;20626;-42
2021/07/22 09:06:56;;;;;;;2.67;1.95;;;22.80;71.20;;;;;;5043067;28;20485;-43
2021/07/22 09:09:22;;;;;;;2.10;1.90;;;22.80;71.10;;;;;;5051409;28;20052;-42
2021/07/22 09:12:01;;;;;;;2.08;1.85;;;22.90;71.20;;;;;;5051537;28;20101;-44
2021/07/22 09:14:29;;;;;;;2.20;2.00;;;22.80;71.20;;;;;;5051281;28;20049;-40
2021/07/22 09:16:56;;;;;;;1.95;1.75;;;22.90;71.20;;;;;;5050996;28;20072;-43
2021/07/22 09:19:31;;;;;;;2.10;1.83;;;22.90;71.20;;;;;;5051299;28;20049;-47
2021/07/22 09:21:57;;;;;;;1.92;1.70;;;22.90;71.20;;;;;;5052138;28;20115;-38
2021/07/22 09:24:23;;;;;;;2.20;2.00;;;22.90;71.30;;;;;;5052196;28;20570;-42
2021/07/22 09:26:51;;;;;;;1.83;1.67;;;22.90;71.20;;;;;;5051422;28;20080;-38
2021/07/22 09:29:18;;;;;;;2.03;1.83;;;22.90;71.20;;;;;;5038616;28;20440;-37
2021/07/22 09:31:45;;;;;;;2.00;1.77;;;22.90;71.20;;;;;;5031638;28;20047;-38
2021/07/22 09:34:15;;;;;;;2.17;1.98;;;23.00;71.20;;;;;;5032107;28;20433;-37
2021/07/22 09:36:41;;;;;;;2.00;1.73;;;23.00;71.20;;;;;;5039549;28;20056;-37
2021/07/22 09:39:28;;;;;;;2.70;2.05;;;23.00;71.20;;;;;;5050313;28;20435;-38
2021/07/22 09:41:57;;;;;;;2.10;1.88;;;23.00;71.20;;;;;;5052226;28;20053;-38
2021/07/22 09:44:28;;;;;;;2.10;1.90;;;23.00;71.20;;;;;;5051920;28;20049;-38
2021/07/22 09:46:55;;;;;;;2.35;2.00;;;23.00;71.10;;;;;;5051414;28;20041;-41
2021/07/22 09:49:42;;;;;;;1.77;1.67;;;23.00;71.10;;;;;;5050204;28;20057;-38
2021/07/22 09:52:21;;;;;;;2.47;1.92;;;23.10;71.20;;;;;;5051646;28;20171;-38
2021/07/22 09:54:47;;;;;;;1.90;1.50;;;23.10;71.20;;;;;;5051960;28;20080;-38
2021/07/22 09:57:19;;;;;;;1.60;1.50;;;23.10;71.10;;;;;;5051386;28;20488;-39
2021/07/22 09:59:46;;;;;;;2.28;1.50;;;23.10;71.20;;;;;;5050648;28;20432;-37
2021/07/22 10:02:18;;;;;;;1.98;1.70;;;23.10;71.10;;;;;;5031791;28;20559;-39
2021/07/22 10:04:49;;;;;;;2.42;1.67;;;23.10;71.10;;;;;;5031847;28;20084;-38
2021/07/22 10:07:15;;;;;;;1.50;1.40;;;23.10;71.10;;;;;;5039377;28;20041;-37
2021/07/22 10:09:43;;;;;;;2.03;1.70;;;23.20;71.10;;;;;;5052405;28;20156;-39
2021/07/22 10:12:09;;;;;;;1.90;1.80;;;23.20;71.00;;;;;;5053335;28;20112;-36
2021/07/22 10:14:38;;;;;;;1.67;1.58;;;23.20;71.00;;;;;;5036862;28;20043;-41
2021/07/22 10:17:08;;;;;;;1.60;1.50;;;23.20;71.00;;;;;;5035359;28;20047;-38
2021/07/22 10:19:36;;;;;;;1.90;1.70;;;23.20;71.00;;;;;;5033949;28;20474;-38
2021/07/22 10:22:03;;;;;;;1.80;1.60;;;23.20;71.00;;;;;;5048059;28;20102;-38
2021/07/22 10:24:29;;;;;;;1.90;1.50;;;23.20;70.90;;;;;;5041666;28;20045;-39
2021/07/22 10:26:56;;;;;;;2.10;1.90;;;23.20;70.90;;;;;;5035214;28;20454;-39
2021/07/22 10:29:22;;;;;;;1.70;1.60;;;23.30;70.90;;;;;;5035000;28;20506;-38
2021/07/22 10:31:51;;;;;;;1.80;1.55;;;23.30;70.90;;;;;;5044310;28;20053;-37
2021/07/22 10:34:19;;;;;;;1.60;1.50;;;23.30;70.90;;;;;;5053288;28;20103;-38
2021/07/22 10:36:45;;;;;;;2.17;1.95;;;23.30;70.90;;;;;;5054792;28;20067;-39
2021/07/22 10:39:11;;;;;;;1.95;1.70;;;23.40;70.90;;;;;;5055002;28;20064;-38
2021/07/22 10:41:40;;;;;;;1.50;1.40;;;23.40;70.80;;;;;;5054327;28;20504;-38
2021/07/22 10:44:08;;;;;;;1.90;1.50;;;23.40;70.80;;;;;;5054744;28;20048;-39
2021/07/22 10:46:55;;;;;;;1.55;1.38;;;23.40;70.80;;;;;;5036163;28;20095;-38
2021/07/22 10:49:44;;;;;;;1.90;1.63;;;23.40;70.70;;;;;;5052588;28;20071;-39
2021/07/22 10:52:14;;;;;;;1.50;1.40;;;23.40;70.60;;;;;;5053921;28;20068;-39
2021/07/22 10:54:48;;;;;;;2.08;1.88;;;23.40;70.60;;;;;;5054687;28;20489;-38
2021/07/22 10:57:40;;;;;;;1.57;1.47;;;23.40;70.60;;;;;;5054363;28;20060;-40
2021/07/22 11:00:08;;;;;;;1.52;1.42;;;23.50;70.60;;;;;;5035697;28;20057;-36
2021/07/22 11:02:41;;;;;;;1.85;1.75;;;23.50;70.60;;;;;;5044304;28;20481;-38
2021/07/22 11:05:11;;;;;;;1.52;1.42;;;23.50;70.50;;;;;;5054335;28;20094;-40
2021/07/22 11:07:37;;;;;;;2.03;1.63;;;23.50;70.50;;;;;;5054215;28;20041;-39
2021/07/22 11:10:04;;;;;;;1.60;1.50;;;23.50;71.10;;;;;;5052714;28;20049;-37
2021/07/22 11:12:33;;;;;;;1.63;1.45;;;23.50;70.40;;;;;;5052863;28;20056;-43
2021/07/22 11:15:02;;;;;;;2.97;1.42;;;23.50;70.40;;;;;;5054463;28;20078;-37
2021/07/22 11:17:33;;;;;;;1.45;1.35;;;23.60;70.40;;;;;;5054263;28;20052;-38
2021/07/22 11:20:17;;;;;;;1.73;1.50;;;23.60;70.40;;;;;;5052425;28;20529;-38
2021/07/22 11:22:44;;;;;;;1.50;1.30;;;23.60;70.30;;;;;;5052760;28;20382;-38
2021/07/22 11:25:10;;;;;;;1.27;1.17;;;23.60;70.30;;;;;;5053961;28;20056;-37
2021/07/22 11:27:46;;;;;;;1.58;1.40;;;23.60;70.30;;;;;;5054394;28;20045;-41
2021/07/22 11:30:14;;;;;;;1.65;1.30;;;23.70;70.20;;;;;;5052568;28;20405;-37
2021/07/22 11:32:40;;;;;;;1.45;1.35;;;23.70;70.90;;;;;;5053363;28;20041;-40
2021/07/22 11:35:06;;;;;;;1.48;1.35;;;23.70;70.20;;;;;;5053702;28;20040;-41
2021/07/22 11:37:32;;;;;;;1.63;1.50;;;23.70;70.10;;;;;;5053346;28;20069;-40
2021/07/22 11:39:58;;;;;;;1.33;1.23;;;23.70;70.10;;;;;;5054017;28;20049;-40
2021/07/22 11:42:23;;;;;;;1.50;1.40;;;23.70;70.00;;;;;;5052041;28;20400;-41
2021/07/22 11:45:06;;;;;;;1.20;1.10;;;23.70;70.00;;;;;;5043313;28;20045;-41
2021/07/22 11:47:33;;;;;;;1.40;1.27;;;23.80;70.00;;;;;;5033789;28;20501;-41
2021/07/22 11:50:02;;;;;;;1.50;1.40;;;23.80;70.00;;;;;;5033820;28;20049;-35
2021/07/22 11:52:30;;;;;;;1.38;1.27;;;23.80;70.00;;;;;;5036351;28;20144;-41
2021/07/22 11:55:12;;;;;;;1.38;1.27;;;23.80;69.90;;;;;;5053685;28;20045;-38
2021/07/22 11:57:39;;;;;;;1.40;1.30;;;23.80;69.80;;;;;;5053598;28;20053;-41
2021/07/22 12:00:33;;;;;;;1.33;1.23;;;23.80;69.80;;;;;;5053496;28;20068;-39
2021/07/22 12:02:59;;;;;;;1.23;1.10;;;23.90;69.80;;;;;;5050632;28;20442;-38
2021/07/22 12:05:26;;;;;;;1.25;1.15;;;23.90;69.80;;;;;;5053593;28;20130;-38
2021/07/22 12:07:53;;;;;;;1.30;1.13;;;23.90;69.80;;;;;;5052891;28;20122;-38
2021/07/22 12:10:26;;;;;;;1.65;1.20;;;23.90;69.70;;;;;;5053309;28;20073;-38
2021/07/22 12:13:08;;;;;;;1.20;1.10;;;23.90;69.70;;;;;;5051197;28;20064;-40
2021/07/22 12:15:34;;;;;;;1.42;1.25;;;23.90;69.60;;;;;;5053034;28;20045;-38
2021/07/22 12:18:01;;;;;;;1.30;1.20;;;23.90;69.60;;;;;;5052787;28;20488;-37
2021/07/22 12:20:27;;;;;;;1.33;1.23;;;23.90;69.60;;;;;;5053144;28;20049;-39
2021/07/22 12:22:53;;;;;;;1.20;1.10;;;23.90;69.60;;;;;;5052351;28;20565;-40
2021/07/22 12:25:19;;;;;;;1.30;1.20;;;24.00;69.60;;;;;;5036474;28;20056;-39
2021/07/22 12:27:48;;;;;;;1.40;1.30;;;24.00;69.60;;;;;;5033108;28;20104;-38
2021/07/22 12:30:23;;;;;;;1.63;1.17;;;24.00;69.50;;;;;;5031674;28;20551;-37
2021/07/22 12:32:49;;;;;;;1.58;1.35;;;24.10;69.50;;;;;;5032708;28;20042;-39
2021/07/22 12:35:32;;;;;;;1.25;1.15;;;24.00;69.50;;;;;;5050977;28;20041;-38
2021/07/22 12:38:25;;;;;;;1.45;1.17;;;24.10;69.40;;;;;;5051947;28;20055;-40
2021/07/22 12:40:58;;;;;;;1.25;1.15;;;24.10;69.40;;;;;;5052380;28;20045;-37
2021/07/22 12:43:26;;;;;;;1.63;1.10;;;24.10;69.40;;;;;;5052566;28;20071;-39
2021/07/22 12:45:53;;;;;;;1.40;1.30;;;24.10;69.40;;;;;;5044452;28;20053;-45
2021/07/22 12:48:38;;;;;;;1.52;1.35;;;24.10;69.30;;;;;;5032689;28;20095;-40
2021/07/22 12:51:15;;;;;;;1.40;1.23;;;24.10;69.30;;;;;;5032543;28;20444;-41